sensor_id;sensor_type;location;lat;lon;timestamp;P1;durP1;ratioP1;P2;durP2;ratioP2
18449;SDS011;9354;50.194;7.690;2022-12-18T00:00:01;82.40;;;13.63;;
18449;SDS011;9354;50.194;7.690;2022-12-18T00:02:30;112.35;;;14.32;;
18449;SDS011;9354;50.194;7.690;2022-12-18T00:04:57;61.90;;;12.32;;
18449;SDS011;9354;50.194;7.690;2022-12-18T00:07:27;50.05;;;12.60;;
18449;SDS011;9354;50.194;7.690;2022-12-18T00:09:55;49.95;;;13.95;;
18449;SDS011;9354;50.194;7.690;2022-12-18T00:12:22;52.85;;;13.00;;
18449;SDS011;9354;50.194;7.690;2022-12-18T00:14:51;43.85;;;13.10;;
18449;SDS011;9354;50.194;7.690;2022-12-18T00:17:18;31.67;;;11.05;;
18449;SDS011;9354;50.194;7.690;2022-12-18T00:19:46;40.83;;;12.38;;
18449;SDS011;9354;50.194;7.690;2022-12-18T00:22:13;35.83;;;12.05;;
18449;SDS011;9354;50.194;7.690;2022-12-18T00:24:44;34.30;;;10.55;;
18449;SDS011;9354;50.194;7.690;2022-12-18T00:27:11;39.28;;;11.27;;
18449;SDS011;9354;50.194;7.690;2022-12-18T00:29:38;46.25;;;12.20;;
18449;SDS011;9354;50.194;7.690;2022-12-18T00:32:07;116.00;;;12.35;;
18449;SDS011;9354;50.194;7.690;2022-12-18T00:34:34;73.88;;;13.07;;
18449;SDS011;9354;50.194;7.690;2022-12-18T00:37:02;53.15;;;12.20;;
18449;SDS011;9354;50.194;7.690;2022-12-18T00:39:29;41.42;;;12.02;;
18449;SDS011;9354;50.194;7.690;2022-12-18T00:41:57;54.10;;;11.30;;
18449;SDS011;9354;50.194;7.690;2022-12-18T00:44:41;41.17;;;12.73;;
18449;SDS011;9354;50.194;7.690;2022-12-18T00:47:10;40.10;;;10.93;;
18449;SDS011;9354;50.194;7.690;2022-12-18T00:49:38;36.35;;;11.27;;
18449;SDS011;9354;50.194;7.690;2022-12-18T00:52:05;33.40;;;11.57;;
18449;SDS011;9354;50.194;7.690;2022-12-18T00:54:32;32.88;;;11.27;;
18449;SDS011;9354;50.194;7.690;2022-12-18T00:57:00;35.40;;;10.25;;
18449;SDS011;9354;50.194;7.690;2022-12-18T00:59:28;34.45;;;10.95;;
18449;SDS011;9354;50.194;7.690;2022-12-18T01:01:55;30.13;;;9.88;;
18449;SDS011;9354;50.194;7.690;2022-12-18T01:04:24;33.97;;;11.00;;
18449;SDS011;9354;50.194;7.690;2022-12-18T01:06:52;28.65;;;9.93;;
18449;SDS011;9354;50.194;7.690;2022-12-18T01:09:19;30.83;;;10.10;;
18449;SDS011;9354;50.194;7.690;2022-12-18T01:11:46;36.10;;;11.15;;
18449;SDS011;9354;50.194;7.690;2022-12-18T01:14:14;31.13;;;9.43;;
18449;SDS011;9354;50.194;7.690;2022-12-18T01:16:41;55.45;;;11.10;;
18449;SDS011;9354;50.194;7.690;2022-12-18T01:19:09;35.35;;;10.75;;
18449;SDS011;9354;50.194;7.690;2022-12-18T01:21:37;43.50;;;11.00;;
18449;SDS011;9354;50.194;7.690;2022-12-18T01:24:05;49.13;;;11.05;;
18449;SDS011;9354;50.194;7.690;2022-12-18T01:26:32;45.72;;;10.55;;
18449;SDS011;9354;50.194;7.690;2022-12-18T01:29:00;48.45;;;10.75;;
18449;SDS011;9354;50.194;7.690;2022-12-18T01:31:28;38.97;;;10.95;;
18449;SDS011;9354;50.194;7.690;2022-12-18T01:33:57;39.97;;;10.38;;
18449;SDS011;9354;50.194;7.690;2022-12-18T01:36:28;34.47;;;10.15;;
18449;SDS011;9354;50.194;7.690;2022-12-18T01:39:00;49.28;;;10.90;;
18449;SDS011;9354;50.194;7.690;2022-12-18T01:41:29;34.88;;;10.13;;
18449;SDS011;9354;50.194;7.690;2022-12-18T01:47:25;36.25;;;10.90;;
18449;SDS011;9354;50.194;7.690;2022-12-18T01:49:55;30.80;;;11.45;;
18449;SDS011;9354;50.194;7.690;2022-12-18T01:52:25;30.27;;;9.60;;
18449;SDS011;9354;50.194;7.690;2022-12-18T01:54:56;29.48;;;9.68;;
18449;SDS011;9354;50.194;7.690;2022-12-18T01:57:24;35.80;;;11.05;;
18449;SDS011;9354;50.194;7.690;2022-12-18T01:59:53;27.75;;;9.05;;
18449;SDS011;9354;50.194;7.690;2022-12-18T02:02:23;34.55;;;10.23;;
18449;SDS011;9354;50.194;7.690;2022-12-18T02:04:50;34.45;;;10.68;;
18449;SDS011;9354;50.194;7.690;2022-12-18T02:07:20;35.05;;;10.63;;
18449;SDS011;9354;50.194;7.690;2022-12-18T02:09:59;30.98;;;9.93;;
18449;SDS011;9354;50.194;7.690;2022-12-18T02:12:30;31.45;;;10.15;;
18449;SDS011;9354;50.194;7.690;2022-12-18T02:15:09;22.08;;;7.93;;
18449;SDS011;9354;50.194;7.690;2022-12-18T02:17:42;36.80;;;10.00;;
18449;SDS011;9354;50.194;7.690;2022-12-18T02:20:16;26.80;;;9.40;;
18449;SDS011;9354;50.194;7.690;2022-12-18T02:22:53;30.95;;;8.57;;
18449;SDS011;9354;50.194;7.690;2022-12-18T02:25:38;26.90;;;8.55;;
18449;SDS011;9354;50.194;7.690;2022-12-18T02:28:16;27.58;;;8.75;;
18449;SDS011;9354;50.194;7.690;2022-12-18T02:30:46;28.08;;;8.25;;
18449;SDS011;9354;50.194;7.690;2022-12-18T02:33:15;22.52;;;7.95;;
18449;SDS011;9354;50.194;7.690;2022-12-18T02:35:45;26.75;;;9.40;;
18449;SDS011;9354;50.194;7.690;2022-12-18T02:38:15;34.22;;;10.70;;
18449;SDS011;9354;50.194;7.690;2022-12-18T02:40:43;29.17;;;9.45;;
18449;SDS011;9354;50.194;7.690;2022-12-18T02:43:13;25.35;;;8.77;;
18449;SDS011;9354;50.194;7.690;2022-12-18T02:45:46;32.85;;;11.57;;
18449;SDS011;9354;50.194;7.690;2022-12-18T02:48:15;32.75;;;9.18;;
18449;SDS011;9354;50.194;7.690;2022-12-18T02:50:44;32.47;;;10.18;;
18449;SDS011;9354;50.194;7.690;2022-12-18T02:53:21;28.00;;;8.70;;
18449;SDS011;9354;50.194;7.690;2022-12-18T02:55:59;30.67;;;8.95;;
18449;SDS011;9354;50.194;7.690;2022-12-18T02:58:36;27.45;;;8.48;;
18449;SDS011;9354;50.194;7.690;2022-12-18T03:01:10;31.35;;;10.18;;
18449;SDS011;9354;50.194;7.690;2022-12-18T03:03:42;31.15;;;10.25;;
18449;SDS011;9354;50.194;7.690;2022-12-18T03:06:18;41.15;;;11.05;;
18449;SDS011;9354;50.194;7.690;2022-12-18T03:08:52;32.55;;;11.32;;
18449;SDS011;9354;50.194;7.690;2022-12-18T03:11:25;34.78;;;10.50;;
18449;SDS011;9354;50.194;7.690;2022-12-18T03:14:15;37.30;;;10.70;;
18449;SDS011;9354;50.194;7.690;2022-12-18T03:16:44;45.42;;;10.93;;
18449;SDS011;9354;50.194;7.690;2022-12-18T03:19:15;49.58;;;11.00;;
18449;SDS011;9354;50.194;7.690;2022-12-18T03:21:45;38.80;;;10.23;;
18449;SDS011;9354;50.194;7.690;2022-12-18T03:24:16;33.63;;;10.38;;
18449;SDS011;9354;50.194;7.690;2022-12-18T03:26:46;30.88;;;9.38;;
18449;SDS011;9354;50.194;7.690;2022-12-18T03:29:18;33.08;;;11.27;;
18449;SDS011;9354;50.194;7.690;2022-12-18T03:31:48;40.63;;;11.63;;
18449;SDS011;9354;50.194;7.690;2022-12-18T03:34:21;37.85;;;10.75;;
18449;SDS011;9354;50.194;7.690;2022-12-18T03:36:53;37.85;;;10.98;;
18449;SDS011;9354;50.194;7.690;2022-12-18T03:39:20;35.78;;;10.18;;
18449;SDS011;9354;50.194;7.690;2022-12-18T03:41:49;32.30;;;10.52;;
18449;SDS011;9354;50.194;7.690;2022-12-18T03:44:26;41.17;;;11.77;;
18449;SDS011;9354;50.194;7.690;2022-12-18T03:46:58;31.63;;;10.75;;
18449;SDS011;9354;50.194;7.690;2022-12-18T03:49:34;28.15;;;8.23;;
18449;SDS011;9354;50.194;7.690;2022-12-18T03:52:06;37.60;;;10.45;;
18449;SDS011;9354;50.194;7.690;2022-12-18T03:54:37;33.53;;;9.93;;
18449;SDS011;9354;50.194;7.690;2022-12-18T03:57:09;32.17;;;9.77;;
18449;SDS011;9354;50.194;7.690;2022-12-18T03:59:41;32.80;;;11.23;;
18449;SDS011;9354;50.194;7.690;2022-12-18T04:02:10;36.65;;;11.18;;
18449;SDS011;9354;50.194;7.690;2022-12-18T04:04:38;33.78;;;11.35;;
18449;SDS011;9354;50.194;7.690;2022-12-18T04:07:09;31.40;;;10.50;;
18449;SDS011;9354;50.194;7.690;2022-12-18T04:09:38;35.90;;;11.45;;
18449;SDS011;9354;50.194;7.690;2022-12-18T04:12:08;34.75;;;11.13;;
18449;SDS011;9354;50.194;7.690;2022-12-18T04:14:35;33.22;;;10.52;;
18449;SDS011;9354;50.194;7.690;2022-12-18T04:17:04;34.53;;;10.30;;
18449;SDS011;9354;50.194;7.690;2022-12-18T04:19:32;26.92;;;9.63;;
18449;SDS011;9354;50.194;7.690;2022-12-18T04:21:59;31.65;;;10.13;;
18449;SDS011;9354;50.194;7.690;2022-12-18T04:24:27;33.13;;;11.05;;
18449;SDS011;9354;50.194;7.690;2022-12-18T04:26:54;34.78;;;10.23;;
18449;SDS011;9354;50.194;7.690;2022-12-18T04:29:21;33.83;;;9.77;;
18449;SDS011;9354;50.194;7.690;2022-12-18T04:31:49;28.88;;;9.27;;
18449;SDS011;9354;50.194;7.690;2022-12-18T04:34:17;32.13;;;9.90;;
18449;SDS011;9354;50.194;7.690;2022-12-18T04:36:45;35.35;;;9.93;;
18449;SDS011;9354;50.194;7.690;2022-12-18T04:39:12;42.58;;;11.10;;
18449;SDS011;9354;50.194;7.690;2022-12-18T04:41:42;32.95;;;10.75;;
18449;SDS011;9354;50.194;7.690;2022-12-18T04:44:10;40.95;;;11.93;;
18449;SDS011;9354;50.194;7.690;2022-12-18T04:46:37;34.17;;;10.88;;
18449;SDS011;9354;50.194;7.690;2022-12-18T04:49:05;29.00;;;9.13;;
18449;SDS011;9354;50.194;7.690;2022-12-18T04:51:33;30.08;;;9.93;;
18449;SDS011;9354;50.194;7.690;2022-12-18T04:54:01;27.90;;;9.30;;
18449;SDS011;9354;50.194;7.690;2022-12-18T04:56:30;34.45;;;10.80;;
18449;SDS011;9354;50.194;7.690;2022-12-18T04:58:57;34.85;;;11.80;;
18449;SDS011;9354;50.194;7.690;2022-12-18T05:01:25;32.35;;;10.27;;
18449;SDS011;9354;50.194;7.690;2022-12-18T05:03:52;30.23;;;11.00;;
18449;SDS011;9354;50.194;7.690;2022-12-18T05:06:20;37.10;;;10.88;;
18449;SDS011;9354;50.194;7.690;2022-12-18T05:08:48;28.88;;;9.02;;
18449;SDS011;9354;50.194;7.690;2022-12-18T05:11:16;30.80;;;10.63;;
18449;SDS011;9354;50.194;7.690;2022-12-18T05:13:43;41.50;;;12.50;;
18449;SDS011;9354;50.194;7.690;2022-12-18T05:16:12;30.83;;;10.95;;
18449;SDS011;9354;50.194;7.690;2022-12-18T05:18:40;35.25;;;10.90;;
18449;SDS011;9354;50.194;7.690;2022-12-18T05:21:08;29.60;;;9.90;;
18449;SDS011;9354;50.194;7.690;2022-12-18T05:23:35;32.47;;;10.00;;
18449;SDS011;9354;50.194;7.690;2022-12-18T05:26:05;34.33;;;10.70;;
18449;SDS011;9354;50.194;7.690;2022-12-18T05:28:34;34.40;;;11.15;;
18449;SDS011;9354;50.194;7.690;2022-12-18T05:31:02;36.53;;;12.13;;
18449;SDS011;9354;50.194;7.690;2022-12-18T05:33:30;38.08;;;12.48;;
18449;SDS011;9354;50.194;7.690;2022-12-18T05:36:00;34.88;;;11.27;;
18449;SDS011;9354;50.194;7.690;2022-12-18T05:38:28;37.47;;;11.85;;
18449;SDS011;9354;50.194;7.690;2022-12-18T05:40:57;41.33;;;12.32;;
18449;SDS011;9354;50.194;7.690;2022-12-18T05:43:28;31.05;;;10.93;;
18449;SDS011;9354;50.194;7.690;2022-12-18T05:45:56;28.67;;;10.48;;
18449;SDS011;9354;50.194;7.690;2022-12-18T05:48:23;33.13;;;12.30;;
18449;SDS011;9354;50.194;7.690;2022-12-18T05:50:51;38.85;;;11.63;;
18449;SDS011;9354;50.194;7.690;2022-12-18T05:53:19;34.90;;;12.65;;
18449;SDS011;9354;50.194;7.690;2022-12-18T05:55:47;39.22;;;12.15;;
18449;SDS011;9354;50.194;7.690;2022-12-18T05:58:15;38.67;;;12.30;;
18449;SDS011;9354;50.194;7.690;2022-12-18T06:00:44;32.67;;;11.07;;
18449;SDS011;9354;50.194;7.690;2022-12-18T06:03:12;41.42;;;12.82;;
18449;SDS011;9354;50.194;7.690;2022-12-18T06:05:41;49.40;;;11.15;;
18449;SDS011;9354;50.194;7.690;2022-12-18T06:08:10;36.08;;;12.10;;
18449;SDS011;9354;50.194;7.690;2022-12-18T06:10:38;37.30;;;12.13;;
18449;SDS011;9354;50.194;7.690;2022-12-18T06:13:05;43.67;;;12.25;;
18449;SDS011;9354;50.194;7.690;2022-12-18T06:15:35;42.38;;;12.07;;
18449;SDS011;9354;50.194;7.690;2022-12-18T06:18:04;34.80;;;11.95;;
18449;SDS011;9354;50.194;7.690;2022-12-18T06:20:32;51.05;;;13.63;;
18449;SDS011;9354;50.194;7.690;2022-12-18T06:23:02;46.58;;;14.40;;
18449;SDS011;9354;50.194;7.690;2022-12-18T06:25:29;33.15;;;11.20;;
18449;SDS011;9354;50.194;7.690;2022-12-18T06:27:56;47.53;;;12.43;;
18449;SDS011;9354;50.194;7.690;2022-12-18T06:30:24;41.13;;;12.35;;
18449;SDS011;9354;50.194;7.690;2022-12-18T06:32:51;35.67;;;11.48;;
18449;SDS011;9354;50.194;7.690;2022-12-18T06:35:20;34.40;;;11.75;;
18449;SDS011;9354;50.194;7.690;2022-12-18T06:37:47;40.17;;;12.43;;
18449;SDS011;9354;50.194;7.690;2022-12-18T06:40:15;41.50;;;13.98;;
18449;SDS011;9354;50.194;7.690;2022-12-18T06:42:42;42.50;;;13.20;;
18449;SDS011;9354;50.194;7.690;2022-12-18T06:45:10;41.63;;;12.70;;
18449;SDS011;9354;50.194;7.690;2022-12-18T06:47:40;44.72;;;12.27;;
18449;SDS011;9354;50.194;7.690;2022-12-18T06:50:08;36.30;;;13.45;;
18449;SDS011;9354;50.194;7.690;2022-12-18T06:52:37;32.40;;;10.85;;
18449;SDS011;9354;50.194;7.690;2022-12-18T06:55:06;39.83;;;13.10;;
18449;SDS011;9354;50.194;7.690;2022-12-18T06:57:37;44.17;;;12.18;;
18449;SDS011;9354;50.194;7.690;2022-12-18T07:00:05;43.72;;;13.00;;
18449;SDS011;9354;50.194;7.690;2022-12-18T07:02:33;44.72;;;13.60;;
18449;SDS011;9354;50.194;7.690;2022-12-18T07:05:01;35.22;;;12.98;;
18449;SDS011;9354;50.194;7.690;2022-12-18T07:07:28;36.17;;;14.07;;
18449;SDS011;9354;50.194;7.690;2022-12-18T07:09:57;42.67;;;13.63;;
18449;SDS011;9354;50.194;7.690;2022-12-18T07:12:25;39.28;;;13.23;;
18449;SDS011;9354;50.194;7.690;2022-12-18T07:14:53;41.08;;;13.52;;
18449;SDS011;9354;50.194;7.690;2022-12-18T07:17:20;36.80;;;14.10;;
18449;SDS011;9354;50.194;7.690;2022-12-18T07:19:48;50.00;;;14.70;;
18449;SDS011;9354;50.194;7.690;2022-12-18T07:22:15;42.22;;;13.07;;
18449;SDS011;9354;50.194;7.690;2022-12-18T07:24:42;39.75;;;12.68;;
18449;SDS011;9354;50.194;7.690;2022-12-18T07:27:11;37.00;;;12.15;;
18449;SDS011;9354;50.194;7.690;2022-12-18T07:29:39;46.28;;;14.23;;
18449;SDS011;9354;50.194;7.690;2022-12-18T07:32:06;37.70;;;12.57;;
18449;SDS011;9354;50.194;7.690;2022-12-18T07:34:33;37.50;;;13.55;;
18449;SDS011;9354;50.194;7.690;2022-12-18T07:37:01;48.58;;;14.82;;
18449;SDS011;9354;50.194;7.690;2022-12-18T07:39:28;46.03;;;15.48;;
18449;SDS011;9354;50.194;7.690;2022-12-18T07:41:56;55.03;;;16.75;;
18449;SDS011;9354;50.194;7.690;2022-12-18T07:44:42;46.85;;;14.70;;
18449;SDS011;9354;50.194;7.690;2022-12-18T07:47:10;42.50;;;14.75;;
18449;SDS011;9354;50.194;7.690;2022-12-18T07:49:37;46.65;;;14.55;;
18449;SDS011;9354;50.194;7.690;2022-12-18T07:52:04;40.45;;;14.60;;
18449;SDS011;9354;50.194;7.690;2022-12-18T07:54:32;40.15;;;14.02;;
18449;SDS011;9354;50.194;7.690;2022-12-18T07:56:59;39.83;;;14.45;;
18449;SDS011;9354;50.194;7.690;2022-12-18T07:59:26;44.63;;;14.07;;
18449;SDS011;9354;50.194;7.690;2022-12-18T08:01:55;43.90;;;14.80;;
18449;SDS011;9354;50.194;7.690;2022-12-18T08:04:23;60.08;;;13.88;;
18449;SDS011;9354;50.194;7.690;2022-12-18T08:06:50;50.70;;;13.98;;
18449;SDS011;9354;50.194;7.690;2022-12-18T08:09:18;39.20;;;12.98;;
18449;SDS011;9354;50.194;7.690;2022-12-18T08:11:45;43.38;;;14.93;;
18449;SDS011;9354;50.194;7.690;2022-12-18T08:14:12;43.60;;;15.77;;
18449;SDS011;9354;50.194;7.690;2022-12-18T08:16:40;47.88;;;15.85;;
18449;SDS011;9354;50.194;7.690;2022-12-18T08:19:09;47.92;;;14.40;;
18449;SDS011;9354;50.194;7.690;2022-12-18T08:21:36;47.03;;;15.60;;
18449;SDS011;9354;50.194;7.690;2022-12-18T08:24:08;56.47;;;17.15;;
18449;SDS011;9354;50.194;7.690;2022-12-18T08:26:36;46.63;;;14.15;;
18449;SDS011;9354;50.194;7.690;2022-12-18T08:29:03;45.00;;;14.23;;
18449;SDS011;9354;50.194;7.690;2022-12-18T08:31:31;44.67;;;15.80;;
18449;SDS011;9354;50.194;7.690;2022-12-18T08:33:58;38.85;;;12.98;;
18449;SDS011;9354;50.194;7.690;2022-12-18T08:36:27;41.83;;;14.43;;
18449;SDS011;9354;50.194;7.690;2022-12-18T08:38:54;35.15;;;12.68;;
18449;SDS011;9354;50.194;7.690;2022-12-18T08:41:22;40.55;;;13.35;;
18449;SDS011;9354;50.194;7.690;2022-12-18T08:43:50;40.50;;;14.02;;
18449;SDS011;9354;50.194;7.690;2022-12-18T08:46:35;42.03;;;14.95;;
18449;SDS011;9354;50.194;7.690;2022-12-18T08:49:04;46.90;;;15.45;;
18449;SDS011;9354;50.194;7.690;2022-12-18T08:51:34;43.65;;;16.48;;
18449;SDS011;9354;50.194;7.690;2022-12-18T08:54:02;42.10;;;16.60;;
18449;SDS011;9354;50.194;7.690;2022-12-18T08:56:30;43.00;;;15.35;;
18449;SDS011;9354;50.194;7.690;2022-12-18T08:58:58;41.60;;;15.60;;
18449;SDS011;9354;50.194;7.690;2022-12-18T09:01:26;44.15;;;15.07;;
18449;SDS011;9354;50.194;7.690;2022-12-18T09:03:53;34.45;;;13.57;;
18449;SDS011;9354;50.194;7.690;2022-12-18T09:06:21;39.95;;;14.23;;
18449;SDS011;9354;50.194;7.690;2022-12-18T09:08:51;39.47;;;14.57;;
18449;SDS011;9354;50.194;7.690;2022-12-18T09:11:19;43.25;;;13.70;;
18449;SDS011;9354;50.194;7.690;2022-12-18T09:13:48;37.80;;;13.68;;
18449;SDS011;9354;50.194;7.690;2022-12-18T09:16:16;38.60;;;14.65;;
18449;SDS011;9354;50.194;7.690;2022-12-18T09:18:45;35.70;;;14.10;;
18449;SDS011;9354;50.194;7.690;2022-12-18T09:21:13;36.05;;;12.85;;
18449;SDS011;9354;50.194;7.690;2022-12-18T09:23:42;36.50;;;14.20;;
18449;SDS011;9354;50.194;7.690;2022-12-18T09:26:11;36.15;;;14.13;;
18449;SDS011;9354;50.194;7.690;2022-12-18T09:28:38;40.13;;;13.83;;
18449;SDS011;9354;50.194;7.690;2022-12-18T09:31:06;42.40;;;15.10;;
18449;SDS011;9354;50.194;7.690;2022-12-18T09:33:34;40.13;;;15.07;;
18449;SDS011;9354;50.194;7.690;2022-12-18T09:36:02;41.43;;;14.60;;
18449;SDS011;9354;50.194;7.690;2022-12-18T09:38:32;37.58;;;14.55;;
18449;SDS011;9354;50.194;7.690;2022-12-18T09:41:03;42.17;;;15.90;;
18449;SDS011;9354;50.194;7.690;2022-12-18T09:43:35;41.40;;;16.37;;
18449;SDS011;9354;50.194;7.690;2022-12-18T09:46:08;42.90;;;16.75;;
18449;SDS011;9354;50.194;7.690;2022-12-18T09:48:39;38.83;;;15.00;;
18449;SDS011;9354;50.194;7.690;2022-12-18T09:51:12;34.17;;;13.77;;
18449;SDS011;9354;50.194;7.690;2022-12-18T09:53:42;40.63;;;14.60;;
18449;SDS011;9354;50.194;7.690;2022-12-18T09:56:15;33.53;;;13.48;;
18449;SDS011;9354;50.194;7.690;2022-12-18T09:58:47;35.17;;;15.95;;
18449;SDS011;9354;50.194;7.690;2022-12-18T10:01:20;40.30;;;15.63;;
18449;SDS011;9354;50.194;7.690;2022-12-18T10:03:52;40.10;;;16.73;;
18449;SDS011;9354;50.194;7.690;2022-12-18T10:06:20;39.03;;;15.02;;
18449;SDS011;9354;50.194;7.690;2022-12-18T10:08:55;36.17;;;14.38;;
18449;SDS011;9354;50.194;7.690;2022-12-18T10:11:32;39.63;;;15.98;;
18449;SDS011;9354;50.194;7.690;2022-12-18T10:14:10;39.95;;;14.88;;
18449;SDS011;9354;50.194;7.690;2022-12-18T10:16:47;44.35;;;17.90;;
18449;SDS011;9354;50.194;7.690;2022-12-18T10:19:30;38.60;;;14.85;;
18449;SDS011;9354;50.194;7.690;2022-12-18T10:22:10;43.35;;;15.02;;
18449;SDS011;9354;50.194;7.690;2022-12-18T10:24:50;34.97;;;13.77;;
18449;SDS011;9354;50.194;7.690;2022-12-18T10:27:23;42.92;;;16.52;;
18449;SDS011;9354;50.194;7.690;2022-12-18T10:29:53;44.47;;;17.27;;
18449;SDS011;9354;50.194;7.690;2022-12-18T10:32:21;44.50;;;18.25;;
18449;SDS011;9354;50.194;7.690;2022-12-18T10:34:51;40.55;;;16.45;;
18449;SDS011;9354;50.194;7.690;2022-12-18T10:37:21;35.78;;;14.15;;
18449;SDS011;9354;50.194;7.690;2022-12-18T10:40:06;34.63;;;15.07;;
18449;SDS011;9354;50.194;7.690;2022-12-18T10:42:38;41.75;;;16.55;;
18449;SDS011;9354;50.194;7.690;2022-12-18T10:45:10;45.60;;;16.10;;
18449;SDS011;9354;50.194;7.690;2022-12-18T10:47:43;39.53;;;13.27;;
18449;SDS011;9354;50.194;7.690;2022-12-18T10:50:19;38.05;;;15.27;;
18449;SDS011;9354;50.194;7.690;2022-12-18T10:52:54;41.38;;;14.77;;
18449;SDS011;9354;50.194;7.690;2022-12-18T10:55:30;43.85;;;17.50;;
18449;SDS011;9354;50.194;7.690;2022-12-18T10:58:12;37.80;;;14.48;;
18449;SDS011;9354;50.194;7.690;2022-12-18T11:00:44;47.70;;;16.40;;
18449;SDS011;9354;50.194;7.690;2022-12-18T11:06:01;32.83;;;14.03;;
18449;SDS011;9354;50.194;7.690;2022-12-18T11:08:31;44.53;;;15.77;;
18449;SDS011;9354;50.194;7.690;2022-12-18T11:10:58;37.67;;;14.85;;
18449;SDS011;9354;50.194;7.690;2022-12-18T11:13:27;42.20;;;17.30;;
18449;SDS011;9354;50.194;7.690;2022-12-18T11:15:58;44.00;;;16.15;;
18449;SDS011;9354;50.194;7.690;2022-12-18T11:18:27;43.83;;;18.37;;
18449;SDS011;9354;50.194;7.690;2022-12-18T11:20:56;47.07;;;19.63;;
18449;SDS011;9354;50.194;7.690;2022-12-18T11:23:25;50.28;;;23.08;;
18449;SDS011;9354;50.194;7.690;2022-12-18T11:25:55;51.83;;;25.40;;
18449;SDS011;9354;50.194;7.690;2022-12-18T11:28:25;42.03;;;17.30;;
18449;SDS011;9354;50.194;7.690;2022-12-18T11:31:16;46.30;;;20.60;;
18449;SDS011;9354;50.194;7.690;2022-12-18T11:33:59;49.67;;;22.75;;
18449;SDS011;9354;50.194;7.690;2022-12-18T11:36:33;49.60;;;22.52;;
18449;SDS011;9354;50.194;7.690;2022-12-18T11:39:07;54.03;;;24.38;;
18449;SDS011;9354;50.194;7.690;2022-12-18T11:41:43;51.92;;;21.10;;
18449;SDS011;9354;50.194;7.690;2022-12-18T11:44:35;46.40;;;19.05;;
18449;SDS011;9354;50.194;7.690;2022-12-18T11:47:12;53.42;;;23.80;;
18449;SDS011;9354;50.194;7.690;2022-12-18T11:49:47;47.53;;;19.33;;
18449;SDS011;9354;50.194;7.690;2022-12-18T11:52:17;51.85;;;21.98;;
18449;SDS011;9354;50.194;7.690;2022-12-18T11:54:50;51.55;;;21.95;;
18449;SDS011;9354;50.194;7.690;2022-12-18T11:57:20;55.30;;;26.92;;
18449;SDS011;9354;50.194;7.690;2022-12-18T11:59:59;52.97;;;21.45;;
18449;SDS011;9354;50.194;7.690;2022-12-18T12:02:39;52.42;;;21.77;;
18449;SDS011;9354;50.194;7.690;2022-12-18T12:05:28;49.45;;;19.77;;
18449;SDS011;9354;50.194;7.690;2022-12-18T12:08:06;55.13;;;22.73;;
18449;SDS011;9354;50.194;7.690;2022-12-18T12:10:45;49.70;;;22.40;;
18449;SDS011;9354;50.194;7.690;2022-12-18T12:13:23;60.20;;;20.92;;
18449;SDS011;9354;50.194;7.690;2022-12-18T12:16:05;65.03;;;24.60;;
18449;SDS011;9354;50.194;7.690;2022-12-18T12:18:43;54.67;;;21.00;;
18449;SDS011;9354;50.194;7.690;2022-12-18T12:21:22;59.67;;;25.02;;
18449;SDS011;9354;50.194;7.690;2022-12-18T12:23:57;56.55;;;19.80;;
18449;SDS011;9354;50.194;7.690;2022-12-18T12:26:33;59.63;;;24.17;;
18449;SDS011;9354;50.194;7.690;2022-12-18T12:29:13;58.15;;;21.58;;
18449;SDS011;9354;50.194;7.690;2022-12-18T12:31:54;55.25;;;20.63;;
18449;SDS011;9354;50.194;7.690;2022-12-18T12:34:33;55.58;;;22.80;;
18449;SDS011;9354;50.194;7.690;2022-12-18T12:37:11;50.20;;;17.58;;
18449;SDS011;9354;50.194;7.690;2022-12-18T12:39:47;53.35;;;20.00;;
18449;SDS011;9354;50.194;7.690;2022-12-18T12:42:16;52.05;;;20.00;;
18449;SDS011;9354;50.194;7.690;2022-12-18T12:45:16;59.85;;;20.08;;
18449;SDS011;9354;50.194;7.690;2022-12-18T12:47:49;45.95;;;17.23;;
18449;SDS011;9354;50.194;7.690;2022-12-18T12:50:20;52.63;;;17.60;;
18449;SDS011;9354;50.194;7.690;2022-12-18T12:52:50;49.78;;;18.15;;
18449;SDS011;9354;50.194;7.690;2022-12-18T12:55:20;52.08;;;21.10;;
18449;SDS011;9354;50.194;7.690;2022-12-18T12:57:52;50.40;;;18.48;;
18449;SDS011;9354;50.194;7.690;2022-12-18T13:00:26;45.75;;;17.38;;
18449;SDS011;9354;50.194;7.690;2022-12-18T13:03:01;56.28;;;21.15;;
18449;SDS011;9354;50.194;7.690;2022-12-18T13:05:40;50.75;;;17.23;;
18449;SDS011;9354;50.194;7.690;2022-12-18T13:08:12;53.10;;;20.67;;
18449;SDS011;9354;50.194;7.690;2022-12-18T13:10:51;56.35;;;19.77;;
18449;SDS011;9354;50.194;7.690;2022-12-18T13:13:49;46.10;;;17.33;;
18449;SDS011;9354;50.194;7.690;2022-12-18T13:16:18;52.40;;;16.25;;
18449;SDS011;9354;50.194;7.690;2022-12-18T13:18:50;52.55;;;18.35;;
18449;SDS011;9354;50.194;7.690;2022-12-18T13:21:23;47.28;;;15.85;;
18449;SDS011;9354;50.194;7.690;2022-12-18T13:23:54;48.08;;;16.90;;
18449;SDS011;9354;50.194;7.690;2022-12-18T13:26:32;53.72;;;20.38;;
18449;SDS011;9354;50.194;7.690;2022-12-18T13:29:00;47.72;;;17.48;;
18449;SDS011;9354;50.194;7.690;2022-12-18T13:34:35;47.25;;;18.75;;
18449;SDS011;9354;50.194;7.690;2022-12-18T13:43:24;40.00;;;11.68;;
18449;SDS011;9354;50.194;7.690;2022-12-18T13:46:21;49.97;;;19.48;;
18449;SDS011;9354;50.194;7.690;2022-12-18T13:48:57;58.92;;;19.30;;
18449;SDS011;9354;50.194;7.690;2022-12-18T13:51:27;52.42;;;19.23;;
18449;SDS011;9354;50.194;7.690;2022-12-18T13:53:57;47.05;;;17.15;;
18449;SDS011;9354;50.194;7.690;2022-12-18T13:56:27;57.47;;;19.05;;
18449;SDS011;9354;50.194;7.690;2022-12-18T14:01:43;49.50;;;16.98;;
18449;SDS011;9354;50.194;7.690;2022-12-18T14:04:12;52.05;;;17.63;;
18449;SDS011;9354;50.194;7.690;2022-12-18T14:06:45;46.30;;;18.27;;
18449;SDS011;9354;50.194;7.690;2022-12-18T14:09:14;45.75;;;15.23;;
18449;SDS011;9354;50.194;7.690;2022-12-18T14:11:46;55.03;;;18.70;;
18449;SDS011;9354;50.194;7.690;2022-12-18T14:14:16;50.47;;;17.65;;
18449;SDS011;9354;50.194;7.690;2022-12-18T14:16:45;47.20;;;16.88;;
18449;SDS011;9354;50.194;7.690;2022-12-18T14:19:14;43.97;;;16.70;;
18449;SDS011;9354;50.194;7.690;2022-12-18T14:21:47;57.45;;;21.33;;
18449;SDS011;9354;50.194;7.690;2022-12-18T14:24:18;60.28;;;18.77;;
18449;SDS011;9354;50.194;7.690;2022-12-18T14:26:47;60.38;;;21.23;;
18449;SDS011;9354;50.194;7.690;2022-12-18T14:29:24;60.55;;;20.50;;
18449;SDS011;9354;50.194;7.690;2022-12-18T14:32:06;52.95;;;18.40;;
18449;SDS011;9354;50.194;7.690;2022-12-18T14:34:36;55.40;;;20.15;;
18449;SDS011;9354;50.194;7.690;2022-12-18T14:37:03;48.05;;;15.63;;
18449;SDS011;9354;50.194;7.690;2022-12-18T14:39:31;53.85;;;17.67;;
18449;SDS011;9354;50.194;7.690;2022-12-18T14:41:58;55.20;;;20.25;;
18449;SDS011;9354;50.194;7.690;2022-12-18T14:44:27;52.80;;;16.35;;
18449;SDS011;9354;50.194;7.690;2022-12-18T14:46:55;50.47;;;16.35;;
18449;SDS011;9354;50.194;7.690;2022-12-18T14:49:23;52.05;;;18.17;;
18449;SDS011;9354;50.194;7.690;2022-12-18T14:51:54;54.00;;;19.10;;
18449;SDS011;9354;50.194;7.690;2022-12-18T14:54:22;58.65;;;17.73;;
18449;SDS011;9354;50.194;7.690;2022-12-18T14:56:51;56.33;;;19.48;;
18449;SDS011;9354;50.194;7.690;2022-12-18T14:59:25;47.38;;;14.05;;
18449;SDS011;9354;50.194;7.690;2022-12-18T15:01:59;53.75;;;18.40;;
18449;SDS011;9354;50.194;7.690;2022-12-18T15:04:30;51.08;;;17.90;;
18449;SDS011;9354;50.194;7.690;2022-12-18T15:07:04;69.22;;;22.92;;
18449;SDS011;9354;50.194;7.690;2022-12-18T15:09:36;60.47;;;20.38;;
18449;SDS011;9354;50.194;7.690;2022-12-18T15:12:04;50.22;;;17.75;;
18449;SDS011;9354;50.194;7.690;2022-12-18T15:14:34;62.95;;;21.88;;